Hlavní strana
METAR-TAF:

METAR-TAF

Letiště :

Douglas Municipal Airport

Douglas, Georgie, Spojené státy americké

zeměpisná šířka: 31-28-36N, zeměpisná délka: 082-51-37W, výška: 78 m

Aktuální stav počasí

Zpráva byla vytvořena před 25 minutami, v 10:35 UTC
Bezvětří
Teplota 18°C
Vlhkost vzduchu 94%
Tlak 1023 hPa
Viditelnost: 16.1 km
Jasno

METAR: KDQH 241035Z AUTO 00000KT 10SM CLR 18/17 A3020 RMK AO2 T01770173

Čas: 07:00 (11:00 UTC)


TAF: chybějící

Stav a předpovědi počasí z více než 4 000 letišť (zprávy METAR a TAF).

Červené a žluté tečky na mapě představují dostupné meteorologické stanice.

Když kurzor umístíte na tečku, zobrazí se název stanice.

Pak kliknutím zobrazíte stav a předpověď počasí.

Chcete-li změnit mapu, kliknutím na zelené tlačítko se znaménkem +mapu přiblížíte, kliknutím na zelené tlačítko se znaménkem – mapu oddálíte a kliknutím na zelené šipky přejdete na sousední mapy.


METAR-TAF: